Time;durP1;ratioP1;P1;durP2;ratioP2;P2;SDS_P1;SDS_P2;PMS_P1;PMS_P2;Temp;Humidity;BMP_temperature;BMP_pressure;BME280_temperature;BME280_humidity;BME280_pressure;Samples;Min_cycle;Max_cycle;Signal;HPM_P1;HPM_P2
2023/06/18 00:01:09;;;;;;;11.57;10.37;;;12.70;99.90;;;;;;5006200;28;20464;-52
2023/06/18 00:03:35;;;;;;;11.10;10.20;;;12.60;99.90;;;;;;5012753;28;20506;-53
2023/06/18 00:06:02;;;;;;;11.97;10.77;;;12.70;99.90;;;;;;5014790;28;20499;-52
2023/06/18 00:08:28;;;;;;;12.70;11.40;;;12.70;99.90;;;;;;5014960;28;20523;-52
2023/06/18 00:10:55;;;;;;;11.53;10.53;;;12.80;99.90;;;;;;5016538;28;20952;-52
2023/06/18 00:13:22;;;;;;;11.97;10.80;;;12.60;99.90;;;;;;5008469;28;20468;-53
2023/06/18 00:15:49;;;;;;;16.70;11.80;;;12.60;99.90;;;;;;5000035;28;20958;-52
2023/06/18 00:18:16;;;;;;;12.40;11.30;;;12.70;99.90;;;;;;5006227;28;20521;-54
2023/06/18 00:20:43;;;;;;;11.57;10.40;;;12.70;99.90;;;;;;5014637;28;20570;-52
2023/06/18 00:23:09;;;;;;;12.20;11.00;;;12.70;99.90;;;;;;5006435;28;20968;-53
2023/06/18 00:25:36;;;;;;;12.30;11.00;;;12.60;99.90;;;;;;5015047;28;20476;-52
2023/06/18 00:28:03;;;;;;;11.80;10.60;;;12.60;99.90;;;;;;5011167;28;20490;-53
2023/06/18 00:30:29;;;;;;;14.53;11.00;;;12.50;99.90;;;;;;5009544;28;20491;-53
2023/06/18 00:32:58;;;;;;;12.83;10.40;;;12.50;99.90;;;;;;5005425;28;20547;-52
2023/06/18 00:35:24;;;;;;;11.77;10.63;;;12.50;99.90;;;;;;5013431;28;20448;-53
2023/06/18 00:37:52;;;;;;;11.70;10.70;;;12.50;99.90;;;;;;5013936;28;20472;-52
2023/06/18 00:40:19;;;;;;;17.80;11.50;;;12.50;99.90;;;;;;4997718;28;20476;-51
2023/06/18 00:42:48;;;;;;;12.00;10.80;;;12.50;99.90;;;;;;5012102;28;20456;-52
2023/06/18 00:45:16;;;;;;;14.27;11.70;;;12.40;99.90;;;;;;5009110;28;20456;-51
2023/06/18 00:47:44;;;;;;;12.30;11.20;;;12.50;99.90;;;;;;5012191;28;20542;-53
2023/06/18 00:50:14;;;;;;;13.40;11.30;;;12.40;99.90;;;;;;5007025;28;20842;-53
2023/06/18 00:52:44;;;;;;;12.33;10.87;;;12.40;99.90;;;;;;5011834;28;20466;-52
2023/06/18 00:55:12;;;;;;;14.60;11.67;;;12.40;99.90;;;;;;5013655;28;20539;-52
2023/06/18 00:57:38;;;;;;;17.20;11.33;;;12.50;99.90;;;;;;5010056;28;20449;-52
2023/06/18 01:00:10;;;;;;;17.73;12.40;;;12.50;99.90;;;;;;4999417;28;20495;-53
2023/06/18 01:02:37;;;;;;;17.17;11.93;;;12.40;99.90;;;;;;5002190;28;20463;-53
2023/06/18 01:05:04;;;;;;;12.10;10.93;;;12.40;99.90;;;;;;4997579;28;20543;-54
2023/06/18 01:07:33;;;;;;;14.53;11.30;;;12.50;99.90;;;;;;5011061;28;20519;-52
2023/06/18 01:10:00;;;;;;;11.30;9.97;;;12.50;99.90;;;;;;5012563;28;20464;-52
2023/06/18 01:12:27;;;;;;;12.50;10.23;;;12.50;99.90;;;;;;5010135;28;20499;-52
2023/06/18 01:14:54;;;;;;;11.77;10.67;;;12.40;99.90;;;;;;5005875;28;20475;-51
2023/06/18 01:17:22;;;;;;;12.97;11.77;;;12.30;99.90;;;;;;5013119;28;20475;-53
2023/06/18 01:19:55;;;;;;;10.87;9.83;;;12.40;99.90;;;;;;5011438;28;20527;-53
2023/06/18 01:22:27;;;;;;;13.40;10.80;;;12.20;99.90;;;;;;5010745;28;20497;-53
2023/06/18 01:24:58;;;;;;;12.77;11.40;;;12.20;99.90;;;;;;5002534;28;20459;-52
2023/06/18 01:27:27;;;;;;;13.80;10.70;;;12.10;99.90;;;;;;5001338;28;20487;-53
2023/06/18 01:29:55;;;;;;;13.27;11.87;;;12.10;99.90;;;;;;4997278;28;20992;-54
2023/06/18 01:32:22;;;;;;;10.93;9.90;;;12.10;99.90;;;;;;5006828;28;20500;-53
2023/06/18 01:34:53;;;;;;;12.30;11.17;;;12.10;99.90;;;;;;5004406;28;20487;-52
2023/06/18 01:37:31;;;;;;;10.60;9.60;;;12.10;99.90;;;;;;5006894;28;20488;-54
2023/06/18 01:40:12;;;;;;;11.00;10.00;;;12.00;99.90;;;;;;5004806;28;20470;-52
2023/06/18 01:42:42;;;;;;;11.70;10.50;;;11.90;99.90;;;;;;5000669;28;20837;-53
2023/06/18 01:45:19;;;;;;;27.37;10.17;;;12.00;99.90;;;;;;5004532;28;20546;-53
2023/06/18 01:47:46;;;;;;;10.30;9.33;;;11.90;99.90;;;;;;5005608;28;20574;-53
2023/06/18 01:50:14;;;;;;;10.23;9.30;;;11.80;99.90;;;;;;5004088;28;21298;-53
2023/06/18 01:52:43;;;;;;;10.27;9.37;;;11.80;99.90;;;;;;5004637;28;20546;-53
2023/06/18 01:55:13;;;;;;;11.27;10.17;;;11.80;99.90;;;;;;5036119;23;20569;-52
2023/06/18 01:57:40;;;;;;;11.70;10.70;;;11.80;99.90;;;;;;5048329;28;21014;-52
2023/06/18 02:00:08;;;;;;;10.90;10.00;;;11.70;99.90;;;;;;5042110;28;20990;-52
2023/06/18 02:02:35;;;;;;;12.73;10.23;;;11.80;99.90;;;;;;5051793;28;20458;-52
2023/06/18 02:05:02;;;;;;;10.27;9.37;;;11.80;99.90;;;;;;5041045;28;20483;-52
2023/06/18 02:07:28;;;;;;;10.30;9.37;;;11.80;99.90;;;;;;5024275;28;20579;-53
2023/06/18 02:09:55;;;;;;;9.70;8.80;;;11.70;99.90;;;;;;5032152;28;20478;-52
2023/06/18 02:12:23;;;;;;;10.80;9.90;;;11.70;99.90;;;;;;5029969;28;20462;-52
2023/06/18 02:14:50;;;;;;;10.63;9.70;;;11.70;99.90;;;;;;5025716;28;20483;-52
2023/06/18 02:17:16;;;;;;;14.07;10.60;;;11.70;99.90;;;;;;5030899;28;20459;-52
2023/06/18 02:19:43;;;;;;;11.77;10.67;;;11.70;99.90;;;;;;5031638;28;20489;-52
2023/06/18 02:22:10;;;;;;;11.17;9.97;;;11.70;99.90;;;;;;5032063;28;20454;-52
2023/06/18 02:24:36;;;;;;;11.87;10.63;;;11.70;99.90;;;;;;5031515;28;20487;-53
2023/06/18 02:27:03;;;;;;;13.03;11.67;;;11.70;99.90;;;;;;5024995;28;20459;-53
2023/06/18 02:29:31;;;;;;;11.07;10.07;;;11.70;99.90;;;;;;5023023;28;20501;-53
2023/06/18 02:31:58;;;;;;;13.60;11.33;;;11.70;99.90;;;;;;5021794;28;20498;-53
2023/06/18 02:34:27;;;;;;;13.03;11.60;;;11.70;99.90;;;;;;5030824;28;20956;-53
2023/06/18 02:36:54;;;;;;;23.40;11.27;;;11.60;99.90;;;;;;5031757;28;20454;-53
2023/06/18 02:39:21;;;;;;;11.90;10.30;;;11.60;99.90;;;;;;5031812;28;20451;-53
2023/06/18 02:41:47;;;;;;;11.60;10.60;;;11.50;99.90;;;;;;5019568;28;20471;-52
2023/06/18 02:44:14;;;;;;;11.90;10.83;;;11.50;99.90;;;;;;5030832;28;20997;-52
2023/06/18 02:46:42;;;;;;;12.20;11.00;;;11.40;99.90;;;;;;5029384;28;20506;-52
2023/06/18 02:49:08;;;;;;;10.80;9.93;;;11.30;99.90;;;;;;5013845;28;20924;-52
2023/06/18 02:51:35;;;;;;;11.87;10.77;;;11.40;99.90;;;;;;5029466;28;20466;-53
2023/06/18 02:54:02;;;;;;;12.10;11.00;;;11.20;99.90;;;;;;5024289;28;20518;-52
2023/06/18 02:56:29;;;;;;;13.80;11.73;;;11.20;99.90;;;;;;5022726;28;20540;-53
2023/06/18 02:58:56;;;;;;;19.70;11.03;;;11.20;99.90;;;;;;5018094;28;20456;-54
2023/06/18 03:01:24;;;;;;;12.93;11.63;;;11.20;99.90;;;;;;5028015;28;20488;-54
2023/06/18 03:03:53;;;;;;;11.37;10.30;;;11.20;99.90;;;;;;5031230;28;21244;-52
2023/06/18 03:06:20;;;;;;;13.23;12.03;;;11.30;99.90;;;;;;5022848;28;20482;-52
2023/06/18 03:08:47;;;;;;;16.27;10.30;;;11.30;99.90;;;;;;5030040;28;20478;-52
2023/06/18 03:11:14;;;;;;;11.73;10.20;;;11.30;99.90;;;;;;5029602;28;20546;-54
2023/06/18 03:13:40;;;;;;;11.90;10.90;;;11.30;99.90;;;;;;5031840;28;20593;-52
2023/06/18 03:16:07;;;;;;;11.53;10.53;;;11.30;99.90;;;;;;5030687;28;20603;-51
2023/06/18 03:18:33;;;;;;;12.37;11.10;;;11.30;1.40;;;;;;5035357;28;20908;-53
2023/06/18 03:21:01;;;;;;;15.77;11.90;;;11.20;99.90;;;;;;5032284;28;20501;-51
2023/06/18 03:23:28;;;;;;;12.13;11.13;;;11.30;1.40;;;;;;5026718;28;20546;-54
2023/06/18 03:25:54;;;;;;;14.33;12.17;;;11.30;99.90;;;;;;5029729;28;20510;-52
2023/06/18 03:28:22;;;;;;;13.40;12.13;;;11.30;99.90;;;;;;5032541;28;20510;-52
2023/06/18 03:30:48;;;;;;;13.03;11.60;;;11.30;99.90;;;;;;5035093;28;20542;-54
2023/06/18 03:33:17;;;;;;;12.83;11.70;;;11.30;99.90;;;;;;5028890;28;20475;-52
2023/06/18 03:35:46;;;;;;;12.07;10.80;;;11.30;99.90;;;;;;5020768;28;20483;-54
2023/06/18 03:38:14;;;;;;;12.20;11.10;;;11.30;99.90;;;;;;5034492;28;20445;-53
2023/06/18 03:40:41;;;;;;;13.43;10.77;;;11.30;99.90;;;;;;5029806;28;21044;-55
2023/06/18 03:43:08;;;;;;;11.40;10.50;;;11.30;99.90;;;;;;5028983;28;20542;-53
2023/06/18 03:45:34;;;;;;;12.77;11.67;;;11.30;99.90;;;;;;5028375;28;20524;-53
2023/06/18 03:48:01;;;;;;;18.10;11.53;;;11.30;99.90;;;;;;5016124;28;20571;-53
2023/06/18 03:50:28;;;;;;;11.90;10.90;;;11.40;99.90;;;;;;5032437;28;20501;-54
2023/06/18 03:52:54;;;;;;;18.80;11.40;;;11.40;99.90;;;;;;5022592;28;20505;-54
2023/06/18 03:55:22;;;;;;;12.40;11.27;;;11.40;99.90;;;;;;5031501;28;20494;-55
2023/06/18 03:57:49;;;;;;;15.53;11.10;;;11.30;99.90;;;;;;5028109;28;20877;-53
2023/06/18 04:00:16;;;;;;;14.37;11.40;;;11.40;99.90;;;;;;5031878;28;20546;-54
2023/06/18 04:02:42;;;;;;;12.13;11.13;;;11.40;99.90;;;;;;5024271;28;20487;-53
2023/06/18 04:05:10;;;;;;;12.57;11.27;;;11.40;99.90;;;;;;5034157;28;20506;-53
2023/06/18 04:07:36;;;;;;;11.70;10.57;;;11.50;1.40;;;;;;5029646;28;20458;-54
2023/06/18 04:10:03;;;;;;;14.20;11.40;;;11.60;99.90;;;;;;5032787;28;20495;-53
2023/06/18 04:12:31;;;;;;;16.60;11.20;;;11.60;99.90;;;;;;5026913;28;20870;-54
2023/06/18 04:14:58;;;;;;;13.00;10.50;;;11.70;99.90;;;;;;5025102;28;21069;-53
2023/06/18 04:17:26;;;;;;;17.93;11.87;;;11.70;99.90;;;;;;5027280;28;20493;-53
2023/06/18 04:19:52;;;;;;;12.00;10.93;;;11.70;99.90;;;;;;5033687;28;20443;-55
2023/06/18 04:22:19;;;;;;;11.30;10.37;;;11.80;99.90;;;;;;5031654;28;20927;-52
2023/06/18 04:24:45;;;;;;;11.20;10.17;;;11.80;99.90;;;;;;5033917;28;20498;-55
2023/06/18 04:27:12;;;;;;;11.60;10.60;;;11.90;99.90;;;;;;5029766;28;20494;-55
2023/06/18 04:29:40;;;;;;;13.03;9.67;;;11.90;99.90;;;;;;5031201;28;21023;-54
2023/06/18 04:32:08;;;;;;;13.03;9.57;;;12.00;99.90;;;;;;5037553;28;20501;-55
2023/06/18 04:34:35;;;;;;;12.33;11.10;;;12.10;99.90;;;;;;5033850;28;20455;-55
2023/06/18 04:37:01;;;;;;;16.63;11.37;;;12.20;99.90;;;;;;5031100;28;20506;-54
2023/06/18 04:39:28;;;;;;;11.33;10.30;;;12.30;99.90;;;;;;5032001;28;20467;-55
2023/06/18 04:41:55;;;;;;;10.63;9.63;;;12.30;99.90;;;;;;5018417;28;20553;-55
2023/06/18 04:44:21;;;;;;;17.30;11.20;;;12.40;99.90;;;;;;5028227;28;20497;-55
2023/06/18 04:46:49;;;;;;;12.03;10.30;;;12.50;99.90;;;;;;5027523;28;20514;-54
2023/06/18 04:49:16;;;;;;;14.73;12.20;;;12.60;99.90;;;;;;5014418;28;20542;-55
2023/06/18 04:51:43;;;;;;;12.80;10.77;;;12.70;99.90;;;;;;5022892;28;20485;-53
2023/06/18 04:54:11;;;;;;;11.40;10.27;;;12.80;99.90;;;;;;5023140;28;20597;-53
2023/06/18 04:56:37;;;;;;;21.50;10.80;;;12.90;99.90;;;;;;5025222;28;20594;-50
2023/06/18 04:59:04;;;;;;;11.07;10.17;;;13.00;99.90;;;;;;5032041;28;20470;-50
2023/06/18 05:01:30;;;;;;;10.53;9.60;;;13.10;99.90;;;;;;5027101;28;20505;-51
2023/06/18 05:03:58;;;;;;;11.50;10.40;;;13.20;99.90;;;;;;5024942;28;20490;-51
2023/06/18 05:06:25;;;;;;;19.90;11.60;;;13.30;99.90;;;;;;5027105;28;20501;-51
2023/06/18 05:08:51;;;;;;;11.80;10.80;;;13.40;99.90;;;;;;5028234;28;20571;-50
2023/06/18 05:11:18;;;;;;;13.40;11.47;;;13.60;99.90;;;;;;5032848;28;20494;-51
2023/06/18 05:13:44;;;;;;;12.90;11.80;;;13.70;99.90;;;;;;5029788;28;20883;-50
2023/06/18 05:16:11;;;;;;;16.90;15.17;;;13.90;99.90;;;;;;5030051;28;20509;-50
2023/06/18 05:18:38;;;;;;;19.53;15.70;;;14.00;99.90;;;;;;5027840;28;20537;-51
2023/06/18 05:21:06;;;;;;;16.50;14.80;;;14.20;99.90;;;;;;5030828;28;20459;-50
2023/06/18 05:23:33;;;;;;;17.67;13.93;;;14.30;99.90;;;;;;5025722;28;20887;-50
2023/06/18 05:25:59;;;;;;;17.60;15.87;;;14.40;99.90;;;;;;5031509;28;20506;-50
2023/06/18 05:28:26;;;;;;;15.77;14.17;;;14.50;99.90;;;;;;5026761;28;20484;-50
2023/06/18 05:30:52;;;;;;;15.23;13.73;;;14.60;99.90;;;;;;5024144;28;20551;-50
2023/06/18 05:33:19;;;;;;;14.67;13.43;;;14.70;99.90;;;;;;5029946;28;20499;-50
2023/06/18 05:35:46;;;;;;;15.50;13.50;;;14.80;99.90;;;;;;5039967;28;20502;-51
2023/06/18 05:38:14;;;;;;;14.43;13.00;;;14.90;99.90;;;;;;5027922;28;20440;-51
2023/06/18 05:40:40;;;;;;;15.43;13.87;;;15.00;99.90;;;;;;5023254;28;20486;-52
2023/06/18 05:43:07;;;;;;;19.63;11.50;;;15.10;99.90;;;;;;5028948;28;20448;-53
2023/06/18 05:45:34;;;;;;;11.70;10.47;;;15.20;99.90;;;;;;5032472;28;20569;-51
2023/06/18 05:48:01;;;;;;;10.30;9.40;;;15.30;99.90;;;;;;5029251;28;21003;-53
2023/06/18 05:50:28;;;;;;;10.97;9.67;;;15.30;99.90;;;;;;5030773;28;20494;-52
2023/06/18 05:52:54;;;;;;;11.57;9.77;;;15.40;99.90;;;;;;5031587;28;20459;-53
2023/06/18 05:55:22;;;;;;;11.90;10.70;;;15.50;99.90;;;;;;5026645;28;20577;-52
2023/06/18 05:57:50;;;;;;;14.93;10.50;;;15.50;99.90;;;;;;5029553;28;20459;-52
2023/06/18 06:00:17;;;;;;;12.40;11.20;;;15.60;99.90;;;;;;5031100;28;21189;-52
2023/06/18 06:02:44;;;;;;;14.03;12.60;;;15.70;99.90;;;;;;5030636;28;20459;-53
2023/06/18 06:05:10;;;;;;;12.23;9.40;;;15.80;99.90;;;;;;5026113;28;21059;-51
2023/06/18 06:07:37;;;;;;;10.20;9.20;;;15.80;99.90;;;;;;5017428;28;20555;-51
2023/06/18 06:10:04;;;;;;;12.27;10.83;;;15.90;99.90;;;;;;5026581;28;21130;-50
2023/06/18 06:12:32;;;;;;;15.43;12.03;;;16.00;99.90;;;;;;5026912;28;20537;-50
2023/06/18 06:14:58;;;;;;;13.63;10.23;;;16.10;99.90;;;;;;5029684;28;20499;-50
2023/06/18 06:17:25;;;;;;;12.57;11.00;;;16.20;99.90;;;;;;5030205;28;20542;-50
2023/06/18 06:19:51;;;;;;;12.70;10.20;;;16.30;99.90;;;;;;5030584;28;20892;-50
2023/06/18 06:22:18;;;;;;;10.90;9.80;;;16.30;99.90;;;;;;5030332;28;20546;-50
2023/06/18 06:24:44;;;;;;;17.60;8.90;;;16.40;99.90;;;;;;5027429;28;20561;-50
2023/06/18 06:27:11;;;;;;;9.77;8.77;;;16.50;99.90;;;;;;5029179;28;20984;-50
2023/06/18 06:29:39;;;;;;;11.70;8.10;;;16.60;99.90;;;;;;5026502;28;20580;-51
2023/06/18 06:32:06;;;;;;;9.90;8.13;;;16.70;99.90;;;;;;5029232;28;20498;-50
2023/06/18 06:34:33;;;;;;;8.50;7.33;;;16.80;99.90;;;;;;5030175;28;20494;-50
2023/06/18 06:36:59;;;;;;;9.40;8.40;;;16.90;32.40;;;;;;5031205;28;20558;-54
2023/06/18 06:39:26;;;;;;;11.10;9.10;;;17.00;83.50;;;;;;5026762;28;20551;-51
2023/06/18 06:41:52;;;;;;;9.77;8.80;;;17.10;76.70;;;;;;5025980;28;20495;-53
2023/06/18 06:44:19;;;;;;;10.10;9.10;;;17.30;77.80;;;;;;5029484;28;20999;-53
2023/06/18 06:46:47;;;;;;;13.50;9.80;;;17.50;78.50;;;;;;5030107;28;20486;-56
2023/06/18 06:49:13;;;;;;;12.10;10.87;;;17.50;82.50;;;;;;5029807;28;20920;-52
2023/06/18 06:51:40;;;;;;;14.00;10.70;;;17.60;80.30;;;;;;5028443;28;20976;-52
2023/06/18 06:54:09;;;;;;;19.97;13.53;;;17.60;77.20;;;;;;5024881;28;20574;-52
2023/06/18 06:56:35;;;;;;;20.53;13.63;;;17.70;70.60;;;;;;5029650;28;20529;-53
2023/06/18 06:59:02;;;;;;;19.97;13.30;;;17.70;82.90;;;;;;5029794;28;20579;-53
2023/06/18 07:01:29;;;;;;;27.77;15.10;;;17.80;86.70;;;;;;5026122;28;20960;-52
2023/06/18 07:03:56;;;;;;;24.03;14.77;;;17.90;89.70;;;;;;5026666;28;20576;-53
2023/06/18 07:06:23;;;;;;;22.40;14.50;;;17.90;99.90;;;;;;5023200;28;20573;-54
2023/06/18 07:08:51;;;;;;;27.87;17.10;;;18.10;93.10;;;;;;5028891;28;20575;-52
2023/06/18 07:11:18;;;;;;;29.80;16.60;;;18.20;99.90;;;;;;5021282;28;20562;-54
2023/06/18 07:13:45;;;;;;;24.47;16.20;;;18.30;99.90;;;;;;5027780;28;20459;-53
2023/06/18 07:16:11;;;;;;;26.47;15.23;;;18.30;99.90;;;;;;5028784;28;20486;-53
2023/06/18 07:18:38;;;;;;;21.83;14.23;;;18.50;99.90;;;;;;5026604;28;20502;-54
2023/06/18 07:21:06;;;;;;;22.63;15.07;;;18.50;99.90;;;;;;5024980;28;20529;-52
2023/06/18 07:23:32;;;;;;;23.37;15.30;;;18.60;99.90;;;;;;5029079;28;20544;-52
2023/06/18 07:25:59;;;;;;;20.30;12.10;;;18.70;99.90;;;;;;5024339;28;20578;-51
2023/06/18 07:28:26;;;;;;;14.80;10.07;;;18.80;99.90;;;;;;5027405;28;20528;-56
2023/06/18 07:30:52;;;;;;;15.40;9.70;;;18.90;99.90;;;;;;5030020;28;20502;-53
2023/06/18 07:33:19;;;;;;;12.83;9.90;;;18.90;99.90;;;;;;5030586;28;20558;-52
2023/06/18 07:35:45;;;;;;;16.63;10.00;;;19.00;99.90;;;;;;5027143;28;20487;-52
2023/06/18 07:38:13;;;;;;;11.10;9.00;;;19.10;99.90;;;;;;5024729;28;20459;-52
2023/06/18 07:40:39;;;;;;;16.67;8.30;;;19.20;99.90;;;;;;5030284;28;20455;-52
2023/06/18 07:43:06;;;;;;;8.80;7.10;;;19.30;99.90;;;;;;5022551;28;20486;-53
2023/06/18 07:45:33;;;;;;;7.90;7.03;;;19.40;47.20;;;;;;5026938;28;20506;-51
2023/06/18 07:47:59;;;;;;;14.60;6.97;;;19.40;21.50;;;;;;5029395;28;20490;-52
2023/06/18 07:50:26;;;;;;;15.13;8.00;;;19.50;99.90;;;;;;5030352;28;20575;-53
2023/06/18 07:52:52;;;;;;;11.60;7.07;;;19.60;94.70;;;;;;5025774;28;20464;-53
2023/06/18 07:57:50;;;;;;;14.73;7.30;;;19.70;41.10;;;;;;4987304;28;20490;-53
2023/06/18 08:00:16;;;;;;;7.03;6.30;;;19.80;36.90;;;;;;4993220;28;21074;-53
2023/06/18 08:02:44;;;;;;;6.60;6.10;;;19.80;99.90;;;;;;4978912;28;20460;-53
2023/06/18 08:05:11;;;;;;;6.60;6.00;;;19.90;58.20;;;;;;4991261;28;20461;-54
2023/06/18 08:07:37;;;;;;;6.90;6.17;;;20.10;68.80;;;;;;4976391;28;20485;-53
2023/06/18 08:10:05;;;;;;;5.03;4.63;;;20.30;89.80;;;;;;4971212;28;20569;-53
2023/06/18 08:12:31;;;;;;;6.43;4.80;;;20.40;99.90;;;;;;4987885;28;20548;-53
2023/06/18 08:14:59;;;;;;;6.73;6.10;;;20.40;99.90;;;;;;4979602;28;20469;-54
2023/06/18 08:17:26;;;;;;;8.03;5.40;;;20.40;99.90;;;;;;4974666;28;20568;-53
2023/06/18 08:19:52;;;;;;;5.93;5.40;;;20.50;99.90;;;;;;4969719;28;20553;-52
2023/06/18 08:22:19;;;;;;;6.43;5.83;;;20.60;99.90;;;;;;4972608;28;20497;-52
2023/06/18 08:24:46;;;;;;;4.90;4.40;;;20.70;99.90;;;;;;4974005;28;20470;-52
2023/06/18 08:27:12;;;;;;;6.93;5.07;;;20.80;99.90;;;;;;4972783;28;20568;-53
2023/06/18 08:29:39;;;;;;;10.90;5.77;;;21.00;33.50;;;;;;4979262;28;20571;-52
2023/06/18 08:32:08;;;;;;;9.27;5.70;;;21.10;26.20;;;;;;4976614;28;21025;-53
2023/06/18 08:34:36;;;;;;;6.87;6.17;;;21.30;99.90;;;;;;4973732;28;20466;-52
2023/06/18 08:37:03;;;;;;;7.17;6.53;;;21.40;37.40;;;;;;4974114;28;20490;-53
2023/06/18 08:39:30;;;;;;;5.77;5.37;;;21.50;51.20;;;;;;4979007;28;20464;-53
2023/06/18 08:41:59;;;;;;;6.67;5.70;;;21.50;47.60;;;;;;4974260;28;20552;-53
2023/06/18 08:44:26;;;;;;;6.23;4.80;;;21.70;47.90;;;;;;4976160;28;20545;-54
2023/06/18 08:46:59;;;;;;;7.97;5.77;;;21.80;51.70;;;;;;4972302;28;20548;-53
2023/06/18 08:49:28;;;;;;;6.23;5.60;;;22.00;83.60;;;;;;4974823;28;20916;-53
2023/06/18 08:51:57;;;;;;;5.80;5.30;;;22.10;78.50;;;;;;4972771;28;20544;-53
2023/06/18 08:54:28;;;;;;;7.80;4.90;;;22.20;93.10;;;;;;4979195;28;20556;-52
2023/06/18 08:56:58;;;;;;;4.30;4.00;;;22.20;99.90;;;;;;4984648;28;20472;-52
2023/06/18 08:59:26;;;;;;;4.10;3.80;;;22.30;99.90;;;;;;4990053;28;20522;-50
2023/06/18 09:01:54;;;;;;;4.50;4.20;;;22.40;99.90;;;;;;4986876;28;20488;-51
2023/06/18 09:04:22;;;;;;;5.33;4.10;;;22.30;99.90;;;;;;4991652;28;20559;-51
2023/06/18 09:06:51;;;;;;;4.90;4.50;;;22.10;99.90;;;;;;4992143;28;20481;-51
2023/06/18 09:09:17;;;;;;;4.97;4.43;;;22.20;99.90;;;;;;4987977;28;20622;-50
2023/06/18 09:11:44;;;;;;;6.83;4.60;;;22.50;99.90;;;;;;4986120;28;20555;-49
2023/06/18 09:14:11;;;;;;;5.50;5.00;;;22.80;99.90;;;;;;4990256;28;20552;-50
2023/06/18 09:16:37;;;;;;;5.40;4.37;;;23.60;99.90;;;;;;4988551;28;20567;-51
2023/06/18 09:19:05;;;;;;;7.80;4.10;;;24.00;99.90;;;;;;4990295;28;20558;-52
2023/06/18 09:21:38;;;;;;;5.40;4.90;;;23.80;99.90;;;;;;4991845;28;20556;-51
2023/06/18 09:24:09;;;;;;;5.00;4.50;;;23.50;99.90;;;;;;4986154;28;20460;-52
2023/06/18 09:26:36;;;;;;;8.60;4.33;;;23.50;99.90;;;;;;4991561;28;20512;-57
2023/06/18 09:29:05;;;;;;;4.73;4.23;;;23.50;99.90;;;;;;4990475;28;20523;-52
2023/06/18 09:31:31;;;;;;;6.43;5.73;;;23.70;99.90;;;;;;4985186;28;20464;-50
2023/06/18 09:33:59;;;;;;;6.43;5.23;;;24.30;99.90;;;;;;4992173;28;20871;-51
2023/06/18 09:36:26;;;;;;;6.97;5.30;;;24.40;99.90;;;;;;4992109;28;20540;-50
2023/06/18 09:38:54;;;;;;;5.13;4.73;;;24.50;99.90;;;;;;4990380;28;20452;-51
2023/06/18 09:41:22;;;;;;;5.20;4.80;;;24.20;99.90;;;;;;4991368;28;20492;-50
2023/06/18 09:43:50;;;;;;;6.63;5.03;;;24.40;99.90;;;;;;4991155;28;20578;-50
2023/06/18 09:46:18;;;;;;;6.80;4.90;;;24.40;99.90;;;;;;4991101;28;20489;-50
2023/06/18 09:48:46;;;;;;;7.80;5.50;;;24.10;99.90;;;;;;4990264;28;20468;-50
2023/06/18 09:51:14;;;;;;;6.13;5.63;;;24.10;99.90;;;;;;4987777;28;20484;-50
2023/06/18 09:53:41;;;;;;;5.53;5.00;;;24.00;99.90;;;;;;4989851;28;20497;-50
2023/06/18 09:56:10;;;;;;;5.00;4.60;;;24.40;99.90;;;;;;4996606;28;21028;-50
2023/06/18 09:58:47;;;;;;;5.67;5.07;;;24.80;99.90;;;;;;4992461;28;20465;-50
2023/06/18 10:01:15;;;;;;;6.13;5.53;;;24.70;99.90;;;;;;4992395;28;20531;-50
2023/06/18 10:03:43;;;;;;;5.40;4.73;;;24.60;99.90;;;;;;4990035;28;20704;-52
2023/06/18 10:06:16;;;;;;;6.33;5.30;;;24.40;99.90;;;;;;4988466;28;20600;-53
2023/06/18 10:08:44;;;;;;;6.10;5.10;;;24.70;99.90;;;;;;4986353;28;20563;-53
2023/06/18 10:11:11;;;;;;;5.73;5.23;;;25.00;99.90;;;;;;4986909;28;20571;-52
2023/06/18 10:13:45;;;;;;;7.57;6.30;;;25.40;99.90;;;;;;4992168;28;20532;-53
2023/06/18 10:16:14;;;;;;;6.67;6.10;;;25.40;99.90;;;;;;5003085;28;20464;-54
2023/06/18 10:18:55;;;;;;;6.27;5.87;;;24.70;99.90;;;;;;4997563;28;20492;-52
2023/06/18 10:21:24;;;;;;;12.70;6.87;;;24.60;99.90;;;;;;4983537;28;21643;-57
2023/06/18 10:23:57;;;;;;;6.10;5.63;;;24.60;99.90;;;;;;4987721;28;20966;-57
2023/06/18 10:26:24;;;;;;;5.50;5.20;;;24.90;99.90;;;;;;4989944;28;20567;-58
2023/06/18 10:28:53;;;;;;;5.43;5.00;;;25.60;99.90;;;;;;4990290;28;20878;-57
2023/06/18 10:31:20;;;;;;;11.50;5.50;;;26.30;99.90;;;;;;4990010;28;20492;-49
2023/06/18 10:33:47;;;;;;;6.50;6.00;;;26.20;99.90;;;;;;4985056;28;20461;-50
2023/06/18 10:36:15;;;;;;;7.03;5.90;;;26.20;99.90;;;;;;4988260;28;20484;-53
2023/06/18 10:38:44;;;;;;;5.40;5.00;;;26.20;99.90;;;;;;4990918;28;20475;-53
2023/06/18 10:41:11;;;;;;;7.90;5.30;;;26.00;99.90;;;;;;4989630;28;20958;-53
2023/06/18 10:43:42;;;;;;;7.13;4.57;;;25.90;99.90;;;;;;4994203;28;20468;-49
2023/06/18 10:46:11;;;;;;;71.63;19.83;;;26.40;99.90;;;;;;4990799;28;20572;-56
2023/06/18 10:48:38;;;;;;;9.33;7.40;;;26.80;99.90;;;;;;4991543;28;20479;-50
2023/06/18 10:51:15;;;;;;;7.10;5.27;;;27.30;99.90;;;;;;4988795;28;21092;-55
2023/06/18 10:53:43;;;;;;;4.90;4.50;;;27.60;99.90;;;;;;4990062;28;20461;-57
2023/06/18 10:56:10;;;;;;;7.07;5.67;;;27.60;99.90;;;;;;4988280;28;20576;-51
2023/06/18 10:58:38;;;;;;;16.03;10.00;;;27.60;99.90;;;;;;4984565;28;20503;-53
2023/06/18 11:01:05;;;;;;;14.57;10.83;;;26.80;99.90;;;;;;4991801;28;20452;-53
2023/06/18 11:03:37;;;;;;;7.03;6.00;;;26.40;99.90;;;;;;4990739;28;20461;-53
2023/06/18 11:06:05;;;;;;;8.23;5.50;;;26.50;99.90;;;;;;4984513;28;20516;-54
2023/06/18 11:08:33;;;;;;;4.67;4.37;;;26.00;99.90;;;;;;4988536;28;20558;-54
2023/06/18 11:11:05;;;;;;;4.87;4.40;;;26.90;99.90;;;;;;4990729;28;20572;-54
2023/06/18 11:13:36;;;;;;;8.10;5.60;;;27.50;99.90;;;;;;4982211;28;20469;-53
2023/06/18 11:16:12;;;;;;;7.13;4.53;;;27.10;99.90;;;;;;4986934;28;20595;-53
2023/06/18 11:18:43;;;;;;;25.10;14.90;;;27.10;99.90;;;;;;4985101;28;20507;-53
2023/06/18 11:21:15;;;;;;;7.73;5.50;;;26.70;99.90;;;;;;4983247;28;20458;-53
2023/06/18 11:23:43;;;;;;;4.73;4.33;;;26.20;99.90;;;;;;4988081;28;20461;-52
2023/06/18 11:26:14;;;;;;;7.90;4.30;;;25.80;99.90;;;;;;4988382;28;20568;-53
2023/06/18 11:28:41;;;;;;;5.87;4.23;;;25.20;99.90;;;;;;4992002;28;20464;-53
2023/06/18 11:31:08;;;;;;;6.33;4.47;;;25.10;99.90;;;;;;4994935;28;20487;-53
2023/06/18 11:33:35;;;;;;;4.80;4.43;;;24.60;99.90;;;;;;4994747;28;20954;-53
2023/06/18 11:36:10;;;;;;;4.63;4.33;;;24.70;99.90;;;;;;4989931;28;20516;-53
2023/06/18 11:38:37;;;;;;;5.40;4.83;;;25.20;99.90;;;;;;4989499;28;20503;-53
2023/06/18 11:41:04;;;;;;;13.20;8.90;;;25.70;99.90;;;;;;4991644;28;21029;-52
2023/06/18 11:43:44;;;;;;;4.63;4.33;;;25.50;99.90;;;;;;4991387;28;20457;-53
2023/06/18 11:46:26;;;;;;;5.57;5.17;;;25.10;99.90;;;;;;4989950;28;21148;-53
2023/06/18 11:48:54;;;;;;;5.80;4.23;;;24.80;99.90;;;;;;4993970;28;20468;-52
2023/06/18 11:51:24;;;;;;;21.50;4.23;;;24.50;99.90;;;;;;4992551;28;20519;-52
2023/06/18 11:53:52;;;;;;;4.53;3.83;;;24.50;99.90;;;;;;4993916;28;20516;-52
2023/06/18 11:56:23;;;;;;;94.23;38.43;;;24.30;99.90;;;;;;5000824;28;20488;-52
2023/06/18 11:58:49;;;;;;;4.80;4.40;;;24.60;99.90;;;;;;4993901;28;20564;-52
2023/06/18 12:01:16;;;;;;;33.47;17.30;;;24.60;99.90;;;;;;4993088;28;20996;-53
2023/06/18 12:03:43;;;;;;;4.87;4.53;;;24.90;99.90;;;;;;4988113;28;20485;-54
2023/06/18 12:06:14;;;;;;;5.27;4.40;;;25.00;99.90;;;;;;4993903;28;20574;-53
2023/06/18 12:08:46;;;;;;;5.23;4.83;;;25.30;99.90;;;;;;5001862;28;20462;-53
2023/06/18 12:11:31;;;;;;;5.43;4.13;;;25.70;99.90;;;;;;5002259;28;20507;-51
2023/06/18 12:14:05;;;;;;;14.10;9.43;;;25.80;99.90;;;;;;4990903;28;21094;-52
2023/06/18 12:16:32;;;;;;;20.83;12.13;;;26.20;99.90;;;;;;4992416;28;20564;-52
2023/06/18 12:19:03;;;;;;;4.70;4.23;;;26.50;99.90;;;;;;5002865;28;20472;-52
2023/06/18 12:21:31;;;;;;;4.30;4.00;;;26.40;99.90;;;;;;4991195;28;20456;-53
2023/06/18 12:23:59;;;;;;;4.40;4.10;;;26.30;99.90;;;;;;5002112;28;20860;-52
2023/06/18 12:26:27;;;;;;;5.20;4.80;;;26.10;99.90;;;;;;5008827;28;20555;-52
2023/06/18 12:28:56;;;;;;;6.03;5.40;;;26.40;99.90;;;;;;4995797;28;20465;-51
2023/06/18 12:31:23;;;;;;;9.20;6.17;;;26.70;99.90;;;;;;4991609;28;22298;-52
2023/06/18 12:33:49;;;;;;;4.47;4.03;;;26.80;99.90;;;;;;4996963;28;20533;-52
2023/06/18 12:36:16;;;;;;;8.60;4.53;;;26.90;99.90;;;;;;4993931;28;20519;-51
2023/06/18 12:38:43;;;;;;;4.30;4.10;;;27.10;99.90;;;;;;4990628;28;20464;-51
2023/06/18 12:41:20;;;;;;;3.97;3.77;;;27.00;99.90;;;;;;4996322;28;20958;-51